createdAt,value
2024-03-12T00:00:53.524Z,48.80
2024-03-12T00:06:13.856Z,47.40
2024-03-12T00:11:14.202Z,49.40
2024-03-12T00:13:45.089Z,46.80
2024-03-12T00:18:46.055Z,46.90
2024-03-12T00:21:16.875Z,67.00
2024-03-12T00:23:47.969Z,71.30
2024-03-12T00:28:48.329Z,69.40
2024-03-12T00:33:48.996Z,57.30
2024-03-12T00:36:19.921Z,51.60
2024-03-12T00:38:51.153Z,52.20
2024-03-12T00:41:22.044Z,51.90
2024-03-12T00:43:52.841Z,49.70
2024-03-12T00:46:23.878Z,51.40
2024-03-12T00:51:24.600Z,49.60
2024-03-12T00:53:55.508Z,49.30
2024-03-12T00:56:26.308Z,51.60
2024-03-12T00:58:57.378Z,46.50
2024-03-12T01:03:57.701Z,50.10
2024-03-12T01:06:28.680Z,49.30
2024-03-12T01:08:59.724Z,49.60
2024-03-12T01:14:01.120Z,50.80
2024-03-12T01:16:33.000Z,46.60
2024-03-12T01:19:04.132Z,50.00
2024-03-12T01:21:35.584Z,46.80
2024-03-12T01:24:07.356Z,46.00
2024-03-12T01:26:38.358Z,48.60
2024-03-12T01:29:09.598Z,46.20
2024-03-12T01:31:40.563Z,45.60
2024-03-12T01:34:11.705Z,46.80
2024-03-12T01:36:43.247Z,46.00
2024-03-12T01:39:14.720Z,47.80
2024-03-12T01:41:45.982Z,46.00
2024-03-12T01:44:16.979Z,46.70
2024-03-12T01:46:48.672Z,49.20
2024-03-12T01:49:20.301Z,48.30
2024-03-12T01:51:51.787Z,50.70
2024-03-12T01:54:22.909Z,46.20
2024-03-12T01:59:23.262Z,49.00
2024-03-12T02:02:00.878Z,48.40
2024-03-12T02:04:32.054Z,46.10
2024-03-12T02:09:32.806Z,46.10
2024-03-12T02:12:03.943Z,47.30
2024-03-12T02:17:04.596Z,46.90
2024-03-12T02:19:35.770Z,47.70
2024-03-12T02:22:06.808Z,45.30
2024-03-12T02:27:07.294Z,45.40
2024-03-12T02:29:38.549Z,48.10
2024-03-12T02:32:09.575Z,49.40
2024-03-12T02:37:09.875Z,46.70
2024-03-12T02:39:41.173Z,49.00
2024-03-12T02:42:12.039Z,48.90
2024-03-12T02:44:42.959Z,48.90
2024-03-12T02:47:13.743Z,48.20
2024-03-12T02:49:44.673Z,49.50
2024-03-12T02:52:15.490Z,49.80
2024-03-12T02:54:46.675Z,49.90
2024-03-12T02:59:46.814Z,49.60
2024-03-12T03:02:17.883Z,51.50
2024-03-12T03:07:18.381Z,48.90
2024-03-12T03:09:49.439Z,47.70
2024-03-12T03:14:50.823Z,47.50
2024-03-12T03:17:42.936Z,49.00
2024-03-12T03:20:14.433Z,49.20
2024-03-12T03:22:45.773Z,49.40
2024-03-12T03:25:17.004Z,48.50
2024-03-12T03:27:48.039Z,48.80
2024-03-12T03:30:19.970Z,47.70
2024-03-12T03:32:51.693Z,47.00
2024-03-12T03:35:22.726Z,49.80
2024-03-12T03:37:53.989Z,48.70
2024-03-12T03:40:25.824Z,49.90
2024-03-12T03:42:56.883Z,53.00
2024-03-12T03:47:58.123Z,51.10
2024-03-12T03:52:58.401Z,47.90
2024-03-12T03:55:36.290Z,48.60
2024-03-12T03:58:07.315Z,47.30
2024-03-12T04:03:09.149Z,49.80
2024-03-12T04:05:40.137Z,54.50
2024-03-12T04:08:10.964Z,49.30
2024-03-12T04:10:41.814Z,52.50
2024-03-12T04:13:12.757Z,53.10
2024-03-12T04:15:43.961Z,49.20
2024-03-12T04:20:44.350Z,48.70
2024-03-12T04:25:44.740Z,50.90
2024-03-12T04:30:45.415Z,51.30
2024-03-12T04:33:16.393Z,54.00
2024-03-12T04:35:47.617Z,56.70
2024-03-12T04:38:18.575Z,54.30
2024-03-12T04:40:49.510Z,53.40
2024-03-12T04:43:20.875Z,52.10
2024-03-12T04:45:52.070Z,52.20
2024-03-12T04:48:23.382Z,49.30
2024-03-12T04:50:54.497Z,53.70
2024-03-12T04:55:54.778Z,52.90
2024-03-12T04:58:25.605Z,55.40
2024-03-12T05:00:58.164Z,52.20
2024-03-12T05:03:29.053Z,50.10
2024-03-12T05:06:00.272Z,52.40
2024-03-12T05:08:31.106Z,52.40
2024-03-12T05:11:02.723Z,52.50
2024-03-12T05:13:33.933Z,51.40
2024-03-12T05:16:07.240Z,55.00
2024-03-12T05:18:38.105Z,54.80
2024-03-12T05:23:38.664Z,56.60
2024-03-12T05:26:09.694Z,54.30
2024-03-12T05:28:41.104Z,51.20
2024-03-12T05:31:18.930Z,52.20
2024-03-12T05:33:50.550Z,49.60
2024-03-12T05:36:21.541Z,46.90
2024-03-12T05:38:52.481Z,47.50
2024-03-12T05:42:03.670Z,50.90
2024-03-12T05:44:53.728Z,51.50
2024-03-12T05:47:27.481Z,51.50
2024-03-12T05:50:01.048Z,47.80
2024-03-12T05:52:43.796Z,53.30
2024-03-12T05:57:46.551Z,51.60
2024-03-12T06:00:19.857Z,50.80
2024-03-12T06:02:51.078Z,50.30
2024-03-12T06:05:22.115Z,49.10
2024-03-12T06:07:53.158Z,48.30
2024-03-12T06:12:53.538Z,54.70
2024-03-12T06:15:24.454Z,53.90
2024-03-12T06:17:55.481Z,51.20
2024-03-12T06:22:55.934Z,51.70
2024-03-12T06:27:56.734Z,46.90
2024-03-12T06:30:27.816Z,46.20
2024-03-12T06:35:28.042Z,47.20
2024-03-12T06:37:59.620Z,47.10
2024-03-12T06:40:30.649Z,54.10
2024-03-12T06:43:01.559Z,57.10
2024-03-12T06:48:02.347Z,51.40
2024-03-12T06:50:33.162Z,52.80
2024-03-12T06:53:04.404Z,52.80
2024-03-12T06:55:35.377Z,51.30
2024-03-12T06:58:09.048Z,52.00
2024-03-12T07:00:40.131Z,49.20
2024-03-12T07:05:40.979Z,53.30
2024-03-12T07:10:41.237Z,49.50
2024-03-12T07:15:43.075Z,50.70
2024-03-12T07:18:14.175Z,52.10
2024-03-12T07:20:46.693Z,53.70
2024-03-12T07:23:17.619Z,56.60
2024-03-12T07:25:48.698Z,58.50
2024-03-12T07:28:23.230Z,55.50
2024-03-12T07:30:55.979Z,56.50
2024-03-12T07:33:26.993Z,55.70
2024-03-12T07:38:27.054Z,56.50
2024-03-12T07:40:57.982Z,56.90
2024-03-12T07:45:58.422Z,52.90
2024-03-12T07:48:29.563Z,51.00
2024-03-12T07:51:03.121Z,51.20
2024-03-12T07:53:34.555Z,48.00
2024-03-12T07:58:35.020Z,42.50
2024-03-12T08:03:35.706Z,43.30
2024-03-12T08:06:08.384Z,40.30
2024-03-12T08:08:39.369Z,44.30
2024-03-12T08:11:10.695Z,44.10
2024-03-12T08:13:42.073Z,43.00
2024-03-12T08:16:13.050Z,44.00
2024-03-12T08:21:13.612Z,38.70
2024-03-12T08:23:44.661Z,42.60
2024-03-12T08:26:15.691Z,42.70
2024-03-12T08:31:23.701Z,42.10
2024-03-12T08:34:02.041Z,42.10
2024-03-12T08:39:02.497Z,41.20
2024-03-12T08:44:02.783Z,40.50
2024-03-12T08:49:03.720Z,40.90
2024-03-12T08:51:35.107Z,44.00
2024-03-12T08:54:06.524Z,41.70
2024-03-12T08:56:37.601Z,40.60
2024-03-12T08:59:08.785Z,40.90
2024-03-12T09:01:39.800Z,43.40
2024-03-12T09:04:11.824Z,41.40
2024-03-12T09:06:43.001Z,42.20
2024-03-12T09:09:13.919Z,43.20
2024-03-12T09:11:44.776Z,41.60
2024-03-12T09:16:44.969Z,40.70
2024-03-12T09:19:15.993Z,41.30
2024-03-12T09:21:47.082Z,41.40
2024-03-12T09:26:49.045Z,41.50
2024-03-12T09:29:20.359Z,41.20
2024-03-12T09:31:51.122Z,37.10
2024-03-12T09:34:22.064Z,38.80
2024-03-12T09:36:53.179Z,39.60
2024-03-12T09:39:25.078Z,39.50
2024-03-12T09:41:56.492Z,39.40
2024-03-12T09:44:27.757Z,40.90
2024-03-12T09:46:58.807Z,40.10
2024-03-12T09:49:30.880Z,41.00
2024-03-12T09:52:02.155Z,40.00
2024-03-12T09:54:33.487Z,42.40
2024-03-12T09:57:06.813Z,39.40
2024-03-12T09:59:37.916Z,42.10
2024-03-12T10:02:09.377Z,41.30
2024-03-12T10:04:40.521Z,41.20
2024-03-12T10:07:12.505Z,40.50
2024-03-12T10:09:43.542Z,41.70
2024-03-12T10:14:46.103Z,40.90
2024-03-12T10:17:17.457Z,42.00
2024-03-12T10:19:48.516Z,43.10
2024-03-12T10:22:21.513Z,42.10
2024-03-12T10:24:52.472Z,41.30
2024-03-12T10:29:52.563Z,42.30
2024-03-12T10:34:56.632Z,41.40
2024-03-12T10:37:33.009Z,41.20
2024-03-12T10:40:21.163Z,40.60
2024-03-12T10:42:56.558Z,37.70
2024-03-12T10:45:27.610Z,37.40
2024-03-12T10:48:00.559Z,37.30
2024-03-12T10:50:34.241Z,38.90
2024-03-12T10:53:05.979Z,37.80
2024-03-12T10:55:43.175Z,35.10
2024-03-12T10:58:16.020Z,37.50
2024-03-12T11:00:47.165Z,38.40
2024-03-12T11:03:18.657Z,33.80
2024-03-12T11:05:50.819Z,33.90
2024-03-12T11:08:21.740Z,30.80
2024-03-12T11:13:22.582Z,21.90
2024-03-12T11:15:56.275Z,20.60
2024-03-12T11:18:37.330Z,24.10
2024-03-12T11:21:11.532Z,25.20
2024-03-12T11:23:42.716Z,27.60
2024-03-12T11:26:16.405Z,21.60
2024-03-12T11:28:51.367Z,20.70
2024-03-12T11:31:22.473Z,20.10
2024-03-12T11:33:54.124Z,18.10
2024-03-12T11:36:33.077Z,18.40
2024-03-12T11:39:09.041Z,19.50
2024-03-12T11:42:14.761Z,17.50
2024-03-12T11:44:53.931Z,18.50
2024-03-12T11:47:35.229Z,19.40
2024-03-12T11:50:34.782Z,16.80
2024-03-12T11:53:22.451Z,13.60
2024-03-12T11:56:09.738Z,11.60
2024-03-12T11:58:43.004Z,10.90
2024-03-12T12:01:18.743Z,11.70
2024-03-12T12:03:56.425Z,10.70
2024-03-12T12:06:27.570Z,10.20
2024-03-12T12:09:01.567Z,10.80
2024-03-12T12:11:33.384Z,10.00
2024-03-12T12:14:05.592Z,9.40
2024-03-12T12:16:36.891Z,10.10
2024-03-12T12:19:09.593Z,9.40
2024-03-12T12:21:41.383Z,10.00
2024-03-12T12:24:13.100Z,9.30
2024-03-12T12:26:46.181Z,8.50
2024-03-12T12:29:17.737Z,9.80
2024-03-12T12:31:49.161Z,10.50
2024-03-12T12:34:20.962Z,10.40
2024-03-12T12:36:53.066Z,11.10
2024-03-12T12:39:32.897Z,12.10
2024-03-12T12:42:12.301Z,11.20
2024-03-12T12:44:43.197Z,11.00
2024-03-12T12:49:52.244Z,7.00
2024-03-12T12:52:23.333Z,6.90
2024-03-12T12:54:59.812Z,7.10
2024-03-12T12:57:34.910Z,7.20
2024-03-12T13:00:16.742Z,8.20
2024-03-12T13:02:48.087Z,8.00
2024-03-12T13:05:23.612Z,7.90
2024-03-12T13:07:54.591Z,8.30
2024-03-12T13:12:55.237Z,9.50
2024-03-12T13:15:27.373Z,8.10
2024-03-12T13:17:58.440Z,7.80
2024-03-12T13:20:29.275Z,7.20
2024-03-12T13:25:29.900Z,8.20
2024-03-12T13:28:01.230Z,8.10
2024-03-12T13:30:32.731Z,7.60
2024-03-12T13:33:04.417Z,8.30
2024-03-12T13:35:35.402Z,8.10
2024-03-12T13:40:37.285Z,7.80
2024-03-12T13:43:08.295Z,7.80
2024-03-12T13:48:09.487Z,7.70
2024-03-12T13:50:40.578Z,7.60
2024-03-12T13:53:11.974Z,7.20
2024-03-12T13:58:12.794Z,6.60
2024-03-12T14:00:44.012Z,6.40
2024-03-12T14:03:15.116Z,6.20
2024-03-12T14:05:47.861Z,6.30
2024-03-12T14:08:20.815Z,6.40
2024-03-12T14:10:53.102Z,7.10
2024-03-12T14:13:24.224Z,6.70
2024-03-12T14:15:55.367Z,6.70
2024-03-12T14:18:26.417Z,5.80
2024-03-12T14:20:57.944Z,5.70
2024-03-12T14:23:28.882Z,5.50
2024-03-12T14:26:00.071Z,5.60
2024-03-12T14:28:31.114Z,5.60
2024-03-12T14:31:02.250Z,6.30
2024-03-12T14:33:33.308Z,6.30
2024-03-12T14:36:05.329Z,6.40
2024-03-12T14:38:36.306Z,6.30
2024-03-12T14:43:36.791Z,6.10
2024-03-12T14:46:07.887Z,6.60
2024-03-12T14:48:38.998Z,7.00
2024-03-12T14:51:10.400Z,7.20
2024-03-12T14:53:41.365Z,6.40
2024-03-12T14:58:41.590Z,7.00
2024-03-12T15:03:42.578Z,6.90
2024-03-12T15:08:42.804Z,7.90
2024-03-12T15:11:14.047Z,7.60
2024-03-12T15:13:44.981Z,7.70
2024-03-12T15:18:45.033Z,8.00
2024-03-12T15:21:16.069Z,7.70
2024-03-12T15:23:47.123Z,7.90
2024-03-12T15:26:18.056Z,9.30
2024-03-12T15:31:19.228Z,9.30
2024-03-12T15:33:50.464Z,8.60
2024-03-12T15:36:21.577Z,8.50
2024-03-12T15:38:52.672Z,8.90
2024-03-12T15:41:23.648Z,10.60
2024-03-12T15:46:23.838Z,13.20
2024-03-12T15:51:26.988Z,12.90
2024-03-12T15:53:57.912Z,12.70
2024-03-12T15:58:59.075Z,11.80
2024-03-12T16:01:41.208Z,13.50
2024-03-12T16:04:17.817Z,13.50
2024-03-12T16:06:48.879Z,14.90
2024-03-12T16:09:20.152Z,11.90
2024-03-12T16:11:51.093Z,11.70
2024-03-12T16:14:27.151Z,14.70
2024-03-12T16:17:01.507Z,19.10
2024-03-12T16:19:32.346Z,29.10
2024-03-12T16:22:46.923Z,33.30
2024-03-12T16:25:20.273Z,21.40
2024-03-12T16:27:51.207Z,20.50
2024-03-12T16:30:22.147Z,18.80
2024-03-12T16:35:25.960Z,23.00
2024-03-12T16:37:57.026Z,22.70
2024-03-12T16:40:28.157Z,21.60
2024-03-12T16:42:59.835Z,20.00
2024-03-12T16:45:30.712Z,20.50
2024-03-12T16:50:30.812Z,20.40
2024-03-12T16:53:01.746Z,20.50
2024-03-12T16:58:13.246Z,27.70
2024-03-12T17:00:47.181Z,29.00
2024-03-12T17:03:20.545Z,34.60
2024-03-12T17:05:53.658Z,37.30
2024-03-12T17:08:25.245Z,37.30
2024-03-12T17:10:57.909Z,37.80
2024-03-12T17:13:30.467Z,35.60
2024-03-12T17:16:06.210Z,34.90
2024-03-12T17:18:39.719Z,34.60
2024-03-12T17:21:15.092Z,33.50
2024-03-12T17:23:48.481Z,38.10
2024-03-12T17:26:20.710Z,37.30
2024-03-12T17:28:55.855Z,38.20
2024-03-12T17:32:01.956Z,41.00
2024-03-12T17:34:25.158Z,47.30
2024-03-12T17:36:59.272Z,56.10
2024-03-12T17:39:32.063Z,77.10
2024-03-12T17:42:08.391Z,88.30
2024-03-12T17:44:42.326Z,101.00
2024-03-12T17:47:15.081Z,99.30
2024-03-12T17:49:47.545Z,101.70
2024-03-12T17:52:19.456Z,92.50
2024-03-12T17:54:53.331Z,95.20
2024-03-12T17:57:28.302Z,57.90
2024-03-12T18:00:00.343Z,44.70
2024-03-12T18:02:35.559Z,54.40
2024-03-12T18:05:08.265Z,36.50
2024-03-12T18:07:41.440Z,29.10
2024-03-12T18:10:15.052Z,27.20
2024-03-12T18:12:49.098Z,26.40
2024-03-12T18:15:20.523Z,25.00
2024-03-12T18:17:55.809Z,24.90
2024-03-12T18:20:29.821Z,24.60
2024-03-12T18:23:00.989Z,24.30
2024-03-12T18:25:33.941Z,32.20
2024-03-12T18:28:05.268Z,30.00
2024-03-12T18:30:36.285Z,30.60
2024-03-12T18:38:13.766Z,25.20
2024-03-12T18:40:44.985Z,26.00
2024-03-12T18:43:15.880Z,28.10
2024-03-12T18:48:17.724Z,30.10
2024-03-12T18:50:49.452Z,30.50
2024-03-12T18:53:24.256Z,33.30
2024-03-12T18:56:05.002Z,33.30
2024-03-12T18:58:38.723Z,33.50
2024-03-12T19:01:11.806Z,36.20
2024-03-12T19:03:49.108Z,36.70
2024-03-12T19:06:31.593Z,40.80
2024-03-12T19:09:04.905Z,45.20
2024-03-12T19:11:38.630Z,50.30
2024-03-12T19:14:12.278Z,51.30
2024-03-12T19:16:47.279Z,56.00
2024-03-12T19:19:27.687Z,56.40
2024-03-12T19:22:01.063Z,58.80
2024-03-12T19:24:32.391Z,57.70
2024-03-12T19:27:07.300Z,58.20
2024-03-12T19:29:38.458Z,56.50
2024-03-12T19:32:22.651Z,55.00
2024-03-12T19:34:54.779Z,44.00
2024-03-12T19:37:27.704Z,38.60
2024-03-12T19:40:01.555Z,29.10
2024-03-12T19:42:37.063Z,28.70
2024-03-12T19:45:11.247Z,32.70
2024-03-12T19:47:46.480Z,35.80
2024-03-12T19:50:22.022Z,38.00
2024-03-12T19:52:54.167Z,37.20
2024-03-12T19:55:26.882Z,38.60
2024-03-12T19:57:59.262Z,39.80
2024-03-12T20:00:31.922Z,40.30
2024-03-12T20:03:04.930Z,40.80
2024-03-12T20:05:36.177Z,41.50
2024-03-12T20:08:09.259Z,41.40
2024-03-12T20:10:40.334Z,42.90
2024-03-12T20:13:11.617Z,46.80
2024-03-12T20:15:44.841Z,48.50
2024-03-12T20:18:16.728Z,55.10
2024-03-12T20:20:47.835Z,47.20
2024-03-12T20:26:11.800Z,39.00
2024-03-12T20:28:40.357Z,44.70
2024-03-12T20:33:40.948Z,43.40
2024-03-12T20:38:41.134Z,31.20
2024-03-12T20:43:41.441Z,25.00
2024-03-12T20:46:12.545Z,16.60
2024-03-12T20:48:43.425Z,15.00
2024-03-12T20:51:14.447Z,16.40
2024-03-12T20:56:14.658Z,18.60
2024-03-12T21:01:15.099Z,21.40
2024-03-12T21:06:15.512Z,19.40
2024-03-12T21:11:16.407Z,21.30
2024-03-12T21:16:16.814Z,23.90
2024-03-12T21:21:17.146Z,25.30
2024-03-12T21:23:48.160Z,23.50
2024-03-12T21:28:52.129Z,21.80
2024-03-12T21:31:23.165Z,26.60
2024-03-12T21:36:23.727Z,27.70
2024-03-12T21:38:54.790Z,28.50
2024-03-12T21:43:55.163Z,27.20
2024-03-12T21:49:18.129Z,24.30
2024-03-12T21:51:49.743Z,23.40
2024-03-12T21:54:23.704Z,23.90
2024-03-12T21:56:54.966Z,23.20
2024-03-12T21:59:26.834Z,24.80
2024-03-12T22:01:57.865Z,25.60
2024-03-12T22:06:59.137Z,26.10
2024-03-12T22:09:30.525Z,26.90
2024-03-12T22:12:01.512Z,30.00
2024-03-12T22:14:32.718Z,40.00
2024-03-12T22:19:33.054Z,56.30
2024-03-12T22:22:04.312Z,40.10
2024-03-12T22:24:37.151Z,31.10
2024-03-12T22:27:08.079Z,27.30
2024-03-12T22:32:10.557Z,27.00
2024-03-12T22:34:41.450Z,46.60
2024-03-12T22:37:12.674Z,55.70
2024-03-12T22:39:44.543Z,64.50
2024-03-12T22:42:18.523Z,69.40
2024-03-12T22:44:53.572Z,61.60
2024-03-12T22:47:27.390Z,50.10
2024-03-12T22:50:00.476Z,50.60
2024-03-12T22:52:33.134Z,56.30
2024-03-12T22:55:04.913Z,64.90
2024-03-12T22:57:38.994Z,67.50
2024-03-12T23:03:02.785Z,55.00
2024-03-12T23:05:35.346Z,47.60
2024-03-12T23:08:10.571Z,40.80
2024-03-12T23:10:42.837Z,38.50
2024-03-12T23:13:14.453Z,33.10
2024-03-12T23:15:46.210Z,27.00
2024-03-12T23:18:17.210Z,24.40
2024-03-12T23:20:48.136Z,22.70
2024-03-12T23:23:19.507Z,24.60
2024-03-12T23:25:50.376Z,19.70
2024-03-12T23:28:21.754Z,15.60
2024-03-12T23:30:52.835Z,14.20
2024-03-12T23:33:23.780Z,13.80
2024-03-12T23:36:14.676Z,15.20
2024-03-12T23:38:45.589Z,15.40
2024-03-12T23:41:16.502Z,17.40
2024-03-12T23:43:47.458Z,18.30
2024-03-12T23:46:18.675Z,16.90
2024-03-12T23:48:49.662Z,17.20
2024-03-12T23:51:20.677Z,15.60
2024-03-12T23:56:20.984Z,16.00
2024-03-12T23:58:52.613Z,15.00
